sensor_id;sensor_type;location;lat;lon;timestamp;P1;durP1;ratioP1;P2;durP2;ratioP2
28828;SDS011;15966;51.540;11.870;2023-02-28T00:00:17;2.28;;;2.05;;
28828;SDS011;15966;51.540;11.870;2023-02-28T00:02:44;2.28;;;1.90;;
28828;SDS011;15966;51.540;11.870;2023-02-28T00:05:11;3.05;;;1.90;;
28828;SDS011;15966;51.540;11.870;2023-02-28T00:07:38;2.58;;;2.22;;
28828;SDS011;15966;51.540;11.870;2023-02-28T00:10:05;5.00;;;1.90;;
28828;SDS011;15966;51.540;11.870;2023-02-28T00:12:33;3.42;;;2.25;;
28828;SDS011;15966;51.540;11.870;2023-02-28T00:15:00;4.07;;;2.70;;
28828;SDS011;15966;51.540;11.870;2023-02-28T00:17:27;2.60;;;1.80;;
28828;SDS011;15966;51.540;11.870;2023-02-28T00:19:53;2.67;;;2.47;;
28828;SDS011;15966;51.540;11.870;2023-02-28T00:22:20;2.70;;;2.33;;
28828;SDS011;15966;51.540;11.870;2023-02-28T00:24:46;2.60;;;2.22;;
28828;SDS011;15966;51.540;11.870;2023-02-28T00:27:13;2.90;;;2.08;;
28828;SDS011;15966;51.540;11.870;2023-02-28T00:29:39;2.85;;;2.53;;
28828;SDS011;15966;51.540;11.870;2023-02-28T00:32:06;3.28;;;1.80;;
28828;SDS011;15966;51.540;11.870;2023-02-28T00:34:32;3.13;;;2.03;;
28828;SDS011;15966;51.540;11.870;2023-02-28T00:37:03;4.13;;;1.83;;
28828;SDS011;15966;51.540;11.870;2023-02-28T00:39:30;3.22;;;2.25;;
28828;SDS011;15966;51.540;11.870;2023-02-28T00:41:56;2.03;;;1.60;;
28828;SDS011;15966;51.540;11.870;2023-02-28T00:44:22;2.70;;;2.50;;
28828;SDS011;15966;51.540;11.870;2023-02-28T00:46:48;2.90;;;1.83;;
28828;SDS011;15966;51.540;11.870;2023-02-28T00:49:14;2.65;;;2.00;;
28828;SDS011;15966;51.540;11.870;2023-02-28T00:51:41;2.00;;;1.80;;
28828;SDS011;15966;51.540;11.870;2023-02-28T00:54:07;3.55;;;2.20;;
28828;SDS011;15966;51.540;11.870;2023-02-28T00:56:33;2.20;;;1.85;;
28828;SDS011;15966;51.540;11.870;2023-02-28T00:58:59;3.47;;;2.45;;
28828;SDS011;15966;51.540;11.870;2023-02-28T01:01:25;1.65;;;1.55;;
28828;SDS011;15966;51.540;11.870;2023-02-28T01:03:51;2.80;;;2.08;;
28828;SDS011;15966;51.540;11.870;2023-02-28T01:06:17;4.60;;;2.35;;
28828;SDS011;15966;51.540;11.870;2023-02-28T01:08:43;2.15;;;1.95;;
28828;SDS011;15966;51.540;11.870;2023-02-28T01:11:10;3.17;;;1.95;;
28828;SDS011;15966;51.540;11.870;2023-02-28T01:13:37;3.07;;;2.27;;
28828;SDS011;15966;51.540;11.870;2023-02-28T01:16:03;3.00;;;2.00;;
28828;SDS011;15966;51.540;11.870;2023-02-28T01:18:30;2.05;;;1.52;;
28828;SDS011;15966;51.540;11.870;2023-02-28T01:20:56;2.95;;;1.80;;
28828;SDS011;15966;51.540;11.870;2023-02-28T01:23:22;3.33;;;2.40;;
28828;SDS011;15966;51.540;11.870;2023-02-28T01:25:49;3.90;;;2.70;;
28828;SDS011;15966;51.540;11.870;2023-02-28T01:28:16;2.10;;;1.90;;
28828;SDS011;15966;51.540;11.870;2023-02-28T01:30:42;4.03;;;1.85;;
28828;SDS011;15966;51.540;11.870;2023-02-28T01:33:12;2.25;;;1.90;;
28828;SDS011;15966;51.540;11.870;2023-02-28T01:35:38;3.30;;;2.08;;
28828;SDS011;15966;51.540;11.870;2023-02-28T01:38:04;3.35;;;2.00;;
28828;SDS011;15966;51.540;11.870;2023-02-28T01:40:30;3.63;;;2.47;;
28828;SDS011;15966;51.540;11.870;2023-02-28T01:42:56;3.65;;;1.95;;
28828;SDS011;15966;51.540;11.870;2023-02-28T01:47:59;5.45;;;2.22;;
28828;SDS011;15966;51.540;11.870;2023-02-28T01:50:31;2.03;;;1.75;;
28828;SDS011;15966;51.540;11.870;2023-02-28T01:53:00;2.83;;;2.35;;
28828;SDS011;15966;51.540;11.870;2023-02-28T01:55:30;4.75;;;1.88;;
28828;SDS011;15966;51.540;11.870;2023-02-28T01:57:58;2.47;;;2.22;;
28828;SDS011;15966;51.540;11.870;2023-02-28T02:00:26;2.95;;;2.38;;
28828;SDS011;15966;51.540;11.870;2023-02-28T02:02:55;4.07;;;2.33;;
28828;SDS011;15966;51.540;11.870;2023-02-28T02:05:30;4.20;;;2.15;;
28828;SDS011;15966;51.540;11.870;2023-02-28T02:08:04;7.70;;;2.35;;
28828;SDS011;15966;51.540;11.870;2023-02-28T02:16:46;3.35;;;2.53;;
28828;SDS011;15966;51.540;11.870;2023-02-28T02:25:10;2.72;;;2.20;;
28828;SDS011;15966;51.540;11.870;2023-02-28T02:27:46;4.53;;;2.15;;
28828;SDS011;15966;51.540;11.870;2023-02-28T02:33:22;3.80;;;2.17;;
28828;SDS011;15966;51.540;11.870;2023-02-28T02:36:18;5.28;;;2.53;;
28828;SDS011;15966;51.540;11.870;2023-02-28T02:38:50;4.25;;;2.42;;
28828;SDS011;15966;51.540;11.870;2023-02-28T02:47:08;2.72;;;1.95;;
28828;SDS011;15966;51.540;11.870;2023-02-28T02:49:39;4.47;;;2.67;;
28828;SDS011;15966;51.540;11.870;2023-02-28T02:52:09;4.35;;;2.40;;
28828;SDS011;15966;51.540;11.870;2023-02-28T02:57:06;2.75;;;2.42;;
28828;SDS011;15966;51.540;11.870;2023-02-28T02:59:40;2.05;;;1.90;;
28828;SDS011;15966;51.540;11.870;2023-02-28T03:02:09;2.70;;;2.25;;
28828;SDS011;15966;51.540;11.870;2023-02-28T03:04:43;4.05;;;2.70;;
28828;SDS011;15966;51.540;11.870;2023-02-28T03:07:13;4.43;;;2.28;;
28828;SDS011;15966;51.540;11.870;2023-02-28T03:09:39;3.85;;;2.60;;
28828;SDS011;15966;51.540;11.870;2023-02-28T03:12:06;2.25;;;1.90;;
28828;SDS011;15966;51.540;11.870;2023-02-28T03:23:10;2.50;;;2.30;;
28828;SDS011;15966;51.540;11.870;2023-02-28T03:28:52;3.75;;;2.85;;
28828;SDS011;15966;51.540;11.870;2023-02-28T03:34:01;2.45;;;1.83;;
28828;SDS011;15966;51.540;11.870;2023-02-28T03:36:33;4.60;;;2.50;;
28828;SDS011;15966;51.540;11.870;2023-02-28T03:39:08;4.63;;;3.08;;
28828;SDS011;15966;51.540;11.870;2023-02-28T03:41:42;3.38;;;2.85;;
28828;SDS011;15966;51.540;11.870;2023-02-28T03:44:13;2.58;;;2.35;;
28828;SDS011;15966;51.540;11.870;2023-02-28T03:46:52;3.40;;;2.50;;
28828;SDS011;15966;51.540;11.870;2023-02-28T03:49:26;4.93;;;3.10;;
28828;SDS011;15966;51.540;11.870;2023-02-28T03:51:56;4.72;;;2.92;;
28828;SDS011;15966;51.540;11.870;2023-02-28T03:54:28;4.78;;;3.28;;
28828;SDS011;15966;51.540;11.870;2023-02-28T03:56:59;4.25;;;2.50;;
28828;SDS011;15966;51.540;11.870;2023-02-28T03:59:42;2.47;;;1.90;;
28828;SDS011;15966;51.540;11.870;2023-02-28T04:02:13;3.97;;;3.05;;
28828;SDS011;15966;51.540;11.870;2023-02-28T04:04:40;3.58;;;2.70;;
28828;SDS011;15966;51.540;11.870;2023-02-28T04:07:10;4.85;;;2.45;;
28828;SDS011;15966;51.540;11.870;2023-02-28T04:09:37;4.10;;;3.28;;
28828;SDS011;15966;51.540;11.870;2023-02-28T04:12:03;4.38;;;2.65;;
28828;SDS011;15966;51.540;11.870;2023-02-28T04:14:29;4.72;;;3.10;;
28828;SDS011;15966;51.540;11.870;2023-02-28T04:16:55;4.32;;;2.65;;
28828;SDS011;15966;51.540;11.870;2023-02-28T04:19:21;4.43;;;2.78;;
28828;SDS011;15966;51.540;11.870;2023-02-28T04:21:49;5.13;;;2.67;;
28828;SDS011;15966;51.540;11.870;2023-02-28T04:26:44;3.13;;;2.58;;
28828;SDS011;15966;51.540;11.870;2023-02-28T04:29:11;4.55;;;2.72;;
28828;SDS011;15966;51.540;11.870;2023-02-28T04:31:38;3.65;;;3.10;;
28828;SDS011;15966;51.540;11.870;2023-02-28T04:34:05;4.05;;;2.35;;
28828;SDS011;15966;51.540;11.870;2023-02-28T04:36:31;6.07;;;3.47;;
28828;SDS011;15966;51.540;11.870;2023-02-28T04:38:57;4.20;;;3.00;;
28828;SDS011;15966;51.540;11.870;2023-02-28T04:41:23;4.03;;;3.30;;
28828;SDS011;15966;51.540;11.870;2023-02-28T04:43:52;3.95;;;2.72;;
28828;SDS011;15966;51.540;11.870;2023-02-28T04:46:19;3.20;;;2.83;;
28828;SDS011;15966;51.540;11.870;2023-02-28T04:48:45;4.13;;;2.85;;
28828;SDS011;15966;51.540;11.870;2023-02-28T04:51:12;2.70;;;2.50;;
28828;SDS011;15966;51.540;11.870;2023-02-28T04:53:40;3.90;;;2.58;;
28828;SDS011;15966;51.540;11.870;2023-02-28T04:56:07;5.00;;;3.33;;
28828;SDS011;15966;51.540;11.870;2023-02-28T04:58:35;6.25;;;3.25;;
28828;SDS011;15966;51.540;11.870;2023-02-28T05:01:05;4.93;;;3.28;;
28828;SDS011;15966;51.540;11.870;2023-02-28T05:03:40;4.35;;;3.05;;
28828;SDS011;15966;51.540;11.870;2023-02-28T05:06:10;4.03;;;3.05;;
28828;SDS011;15966;51.540;11.870;2023-02-28T05:08:37;4.65;;;2.90;;
28828;SDS011;15966;51.540;11.870;2023-02-28T05:11:03;4.18;;;3.15;;
28828;SDS011;15966;51.540;11.870;2023-02-28T05:13:30;4.20;;;2.65;;
28828;SDS011;15966;51.540;11.870;2023-02-28T05:15:56;3.38;;;2.50;;
28828;SDS011;15966;51.540;11.870;2023-02-28T05:18:22;2.78;;;2.47;;
28828;SDS011;15966;51.540;11.870;2023-02-28T05:20:48;5.55;;;3.50;;
28828;SDS011;15966;51.540;11.870;2023-02-28T05:23:14;7.28;;;2.65;;
28828;SDS011;15966;51.540;11.870;2023-02-28T05:25:42;3.67;;;3.30;;
28828;SDS011;15966;51.540;11.870;2023-02-28T05:28:08;5.95;;;3.00;;
28828;SDS011;15966;51.540;11.870;2023-02-28T05:30:34;4.85;;;3.80;;
28828;SDS011;15966;51.540;11.870;2023-02-28T05:33:00;5.00;;;3.40;;
28828;SDS011;15966;51.540;11.870;2023-02-28T05:35:27;4.25;;;3.17;;
28828;SDS011;15966;51.540;11.870;2023-02-28T05:37:53;4.40;;;3.95;;
28828;SDS011;15966;51.540;11.870;2023-02-28T05:40:19;3.15;;;2.63;;
28828;SDS011;15966;51.540;11.870;2023-02-28T05:42:45;4.65;;;3.72;;
28828;SDS011;15966;51.540;11.870;2023-02-28T05:45:11;5.40;;;3.72;;
28828;SDS011;15966;51.540;11.870;2023-02-28T05:47:38;5.03;;;3.13;;
28828;SDS011;15966;51.540;11.870;2023-02-28T05:50:04;5.85;;;3.60;;
28828;SDS011;15966;51.540;11.870;2023-02-28T05:52:31;4.97;;;2.92;;
28828;SDS011;15966;51.540;11.870;2023-02-28T05:54:57;4.00;;;3.60;;
28828;SDS011;15966;51.540;11.870;2023-02-28T05:57:23;3.30;;;2.92;;
28828;SDS011;15966;51.540;11.870;2023-02-28T05:59:49;4.57;;;3.17;;
28828;SDS011;15966;51.540;11.870;2023-02-28T06:02:16;4.25;;;3.60;;
28828;SDS011;15966;51.540;11.870;2023-02-28T06:04:43;5.57;;;3.13;;
28828;SDS011;15966;51.540;11.870;2023-02-28T06:07:09;5.55;;;4.10;;
28828;SDS011;15966;51.540;11.870;2023-02-28T06:09:36;4.05;;;3.08;;
28828;SDS011;15966;51.540;11.870;2023-02-28T06:12:03;5.47;;;3.75;;
28828;SDS011;15966;51.540;11.870;2023-02-28T06:14:30;3.63;;;2.88;;
28828;SDS011;15966;51.540;11.870;2023-02-28T06:16:57;5.82;;;4.30;;
28828;SDS011;15966;51.540;11.870;2023-02-28T06:19:24;6.68;;;3.33;;
28828;SDS011;15966;51.540;11.870;2023-02-28T06:21:51;4.72;;;3.53;;
28828;SDS011;15966;51.540;11.870;2023-02-28T06:24:18;3.95;;;3.10;;
28828;SDS011;15966;51.540;11.870;2023-02-28T06:26:45;5.70;;;3.72;;
28828;SDS011;15966;51.540;11.870;2023-02-28T06:29:11;5.50;;;3.42;;
28828;SDS011;15966;51.540;11.870;2023-02-28T06:31:37;5.13;;;3.47;;
28828;SDS011;15966;51.540;11.870;2023-02-28T06:34:04;4.72;;;3.88;;
28828;SDS011;15966;51.540;11.870;2023-02-28T06:36:30;5.80;;;3.72;;
28828;SDS011;15966;51.540;11.870;2023-02-28T06:38:56;4.60;;;3.53;;
28828;SDS011;15966;51.540;11.870;2023-02-28T06:41:23;6.72;;;3.55;;
28828;SDS011;15966;51.540;11.870;2023-02-28T06:43:50;4.82;;;3.55;;
28828;SDS011;15966;51.540;11.870;2023-02-28T06:46:16;8.05;;;4.00;;
28828;SDS011;15966;51.540;11.870;2023-02-28T06:48:43;4.45;;;3.60;;
28828;SDS011;15966;51.540;11.870;2023-02-28T06:51:11;5.40;;;4.28;;
28828;SDS011;15966;51.540;11.870;2023-02-28T06:53:45;4.47;;;4.07;;
28828;SDS011;15966;51.540;11.870;2023-02-28T06:56:12;4.18;;;3.58;;
28828;SDS011;15966;51.540;11.870;2023-02-28T06:58:39;7.93;;;6.07;;
28828;SDS011;15966;51.540;11.870;2023-02-28T07:01:06;13.82;;;8.95;;
28828;SDS011;15966;51.540;11.870;2023-02-28T07:03:32;10.82;;;7.93;;
28828;SDS011;15966;51.540;11.870;2023-02-28T07:06:00;10.55;;;7.15;;
28828;SDS011;15966;51.540;11.870;2023-02-28T07:08:26;12.13;;;7.85;;
28828;SDS011;15966;51.540;11.870;2023-02-28T07:10:53;13.48;;;8.38;;
28828;SDS011;15966;51.540;11.870;2023-02-28T07:13:20;11.90;;;8.50;;
28828;SDS011;15966;51.540;11.870;2023-02-28T07:16:00;9.82;;;7.65;;
28828;SDS011;15966;51.540;11.870;2023-02-28T07:18:27;9.50;;;7.63;;
28828;SDS011;15966;51.540;11.870;2023-02-28T07:20:54;10.45;;;6.07;;
28828;SDS011;15966;51.540;11.870;2023-02-28T07:23:20;9.60;;;6.32;;
28828;SDS011;15966;51.540;11.870;2023-02-28T07:25:46;9.35;;;6.22;;
28828;SDS011;15966;51.540;11.870;2023-02-28T07:28:13;9.18;;;6.68;;
28828;SDS011;15966;51.540;11.870;2023-02-28T07:30:40;7.88;;;5.25;;
28828;SDS011;15966;51.540;11.870;2023-02-28T07:33:06;10.23;;;5.90;;
28828;SDS011;15966;51.540;11.870;2023-02-28T07:35:32;10.88;;;7.45;;
28828;SDS011;15966;51.540;11.870;2023-02-28T07:37:58;9.98;;;7.18;;
28828;SDS011;15966;51.540;11.870;2023-02-28T07:40:25;11.48;;;8.60;;
28828;SDS011;15966;51.540;11.870;2023-02-28T07:42:51;8.35;;;5.50;;
28828;SDS011;15966;51.540;11.870;2023-02-28T07:45:17;6.35;;;4.97;;
28828;SDS011;15966;51.540;11.870;2023-02-28T07:47:44;8.07;;;4.80;;
28828;SDS011;15966;51.540;11.870;2023-02-28T07:50:12;4.78;;;3.97;;
28828;SDS011;15966;51.540;11.870;2023-02-28T07:52:40;7.13;;;4.63;;
28828;SDS011;15966;51.540;11.870;2023-02-28T07:55:07;4.80;;;3.97;;
28828;SDS011;15966;51.540;11.870;2023-02-28T07:57:34;4.95;;;4.38;;
28828;SDS011;15966;51.540;11.870;2023-02-28T08:00:01;6.68;;;3.53;;
28828;SDS011;15966;51.540;11.870;2023-02-28T08:02:31;5.30;;;4.20;;
28828;SDS011;15966;51.540;11.870;2023-02-28T08:04:57;8.27;;;4.53;;
28828;SDS011;15966;51.540;11.870;2023-02-28T08:07:23;7.60;;;4.38;;
28828;SDS011;15966;51.540;11.870;2023-02-28T08:09:49;4.78;;;3.40;;
28828;SDS011;15966;51.540;11.870;2023-02-28T08:12:15;4.57;;;3.38;;
28828;SDS011;15966;51.540;11.870;2023-02-28T08:14:41;4.72;;;3.50;;
28828;SDS011;15966;51.540;11.870;2023-02-28T08:17:08;8.30;;;3.33;;
28828;SDS011;15966;51.540;11.870;2023-02-28T08:19:35;8.80;;;4.18;;
28828;SDS011;15966;51.540;11.870;2023-02-28T08:22:01;4.78;;;3.70;;
28828;SDS011;15966;51.540;11.870;2023-02-28T08:24:27;3.88;;;3.35;;
28828;SDS011;15966;51.540;11.870;2023-02-28T08:26:54;6.43;;;3.95;;
28828;SDS011;15966;51.540;11.870;2023-02-28T08:29:20;7.03;;;4.75;;
28828;SDS011;15966;51.540;11.870;2023-02-28T08:31:46;5.47;;;4.55;;
28828;SDS011;15966;51.540;11.870;2023-02-28T08:34:14;5.10;;;3.67;;
28828;SDS011;15966;51.540;11.870;2023-02-28T08:36:40;4.20;;;3.35;;
28828;SDS011;15966;51.540;11.870;2023-02-28T08:39:09;5.57;;;4.20;;
28828;SDS011;15966;51.540;11.870;2023-02-28T08:41:35;6.82;;;4.85;;
28828;SDS011;15966;51.540;11.870;2023-02-28T08:44:01;11.50;;;4.78;;
28828;SDS011;15966;51.540;11.870;2023-02-28T08:46:28;7.07;;;4.82;;
28828;SDS011;15966;51.540;11.870;2023-02-28T08:48:54;10.15;;;4.50;;
28828;SDS011;15966;51.540;11.870;2023-02-28T08:51:24;8.93;;;4.93;;
28828;SDS011;15966;51.540;11.870;2023-02-28T08:53:51;5.25;;;3.85;;
28828;SDS011;15966;51.540;11.870;2023-02-28T08:56:18;5.05;;;4.47;;
28828;SDS011;15966;51.540;11.870;2023-02-28T08:58:45;7.07;;;5.03;;
28828;SDS011;15966;51.540;11.870;2023-02-28T09:01:13;6.50;;;4.80;;
28828;SDS011;15966;51.540;11.870;2023-02-28T09:03:39;5.25;;;4.45;;
28828;SDS011;15966;51.540;11.870;2023-02-28T09:06:06;9.55;;;4.30;;
28828;SDS011;15966;51.540;11.870;2023-02-28T09:08:33;5.10;;;3.90;;
28828;SDS011;15966;51.540;11.870;2023-02-28T09:11:00;5.32;;;4.20;;
28828;SDS011;15966;51.540;11.870;2023-02-28T09:13:26;7.43;;;3.92;;
28828;SDS011;15966;51.540;11.870;2023-02-28T09:15:53;6.13;;;4.07;;
28828;SDS011;15966;51.540;11.870;2023-02-28T09:18:21;8.00;;;4.95;;
28828;SDS011;15966;51.540;11.870;2023-02-28T09:20:48;4.85;;;4.22;;
28828;SDS011;15966;51.540;11.870;2023-02-28T09:23:15;6.70;;;5.40;;
28828;SDS011;15966;51.540;11.870;2023-02-28T09:25:49;6.03;;;4.55;;
28828;SDS011;15966;51.540;11.870;2023-02-28T09:28:16;4.43;;;3.85;;
28828;SDS011;15966;51.540;11.870;2023-02-28T09:30:47;4.05;;;3.65;;
28828;SDS011;15966;51.540;11.870;2023-02-28T09:33:15;6.28;;;4.45;;
28828;SDS011;15966;51.540;11.870;2023-02-28T09:35:42;8.00;;;5.95;;
28828;SDS011;15966;51.540;11.870;2023-02-28T09:38:09;6.50;;;3.95;;
28828;SDS011;15966;51.540;11.870;2023-02-28T09:40:36;9.35;;;4.63;;
28828;SDS011;15966;51.540;11.870;2023-02-28T09:43:04;5.20;;;4.72;;
28828;SDS011;15966;51.540;11.870;2023-02-28T09:45:41;6.72;;;4.90;;
28828;SDS011;15966;51.540;11.870;2023-02-28T09:48:23;7.85;;;5.15;;
28828;SDS011;15966;51.540;11.870;2023-02-28T09:50:52;9.43;;;4.93;;
28828;SDS011;15966;51.540;11.870;2023-02-28T09:53:28;6.00;;;4.18;;
28828;SDS011;15966;51.540;11.870;2023-02-28T09:56:01;6.32;;;4.72;;
28828;SDS011;15966;51.540;11.870;2023-02-28T09:59:05;4.60;;;4.15;;
28828;SDS011;15966;51.540;11.870;2023-02-28T10:02:02;8.40;;;4.07;;
28828;SDS011;15966;51.540;11.870;2023-02-28T10:04:54;4.93;;;4.50;;
28828;SDS011;15966;51.540;11.870;2023-02-28T10:12:57;4.95;;;3.40;;
28828;SDS011;15966;51.540;11.870;2023-02-28T10:15:25;4.28;;;3.58;;
28828;SDS011;15966;51.540;11.870;2023-02-28T10:17:56;7.13;;;3.40;;
28828;SDS011;15966;51.540;11.870;2023-02-28T10:20:24;4.63;;;3.65;;
28828;SDS011;15966;51.540;11.870;2023-02-28T10:23:09;4.85;;;4.05;;
28828;SDS011;15966;51.540;11.870;2023-02-28T10:25:53;4.57;;;3.65;;
28828;SDS011;15966;51.540;11.870;2023-02-28T10:28:28;4.05;;;3.30;;
28828;SDS011;15966;51.540;11.870;2023-02-28T10:30:55;3.88;;;3.53;;
28828;SDS011;15966;51.540;11.870;2023-02-28T10:33:24;6.32;;;3.58;;
28828;SDS011;15966;51.540;11.870;2023-02-28T10:35:55;4.72;;;3.13;;
28828;SDS011;15966;51.540;11.870;2023-02-28T10:38:31;5.88;;;4.20;;
28828;SDS011;15966;51.540;11.870;2023-02-28T10:41:09;3.95;;;3.47;;
28828;SDS011;15966;51.540;11.870;2023-02-28T10:43:38;4.25;;;3.85;;
28828;SDS011;15966;51.540;11.870;2023-02-28T10:48:42;4.95;;;4.20;;
28828;SDS011;15966;51.540;11.870;2023-02-28T10:51:10;4.65;;;3.78;;
28828;SDS011;15966;51.540;11.870;2023-02-28T10:56:20;5.45;;;3.53;;
28828;SDS011;15966;51.540;11.870;2023-02-28T11:04:18;7.03;;;4.22;;
28828;SDS011;15966;51.540;11.870;2023-02-28T11:06:57;5.00;;;4.47;;
28828;SDS011;15966;51.540;11.870;2023-02-28T11:09:26;6.15;;;4.45;;
28828;SDS011;15966;51.540;11.870;2023-02-28T11:11:55;5.85;;;4.45;;
28828;SDS011;15966;51.540;11.870;2023-02-28T11:14:23;7.90;;;4.53;;
28828;SDS011;15966;51.540;11.870;2023-02-28T11:16:51;6.53;;;5.10;;
28828;SDS011;15966;51.540;11.870;2023-02-28T11:19:19;4.05;;;3.65;;
28828;SDS011;15966;51.540;11.870;2023-02-28T11:21:57;5.50;;;3.95;;
28828;SDS011;15966;51.540;11.870;2023-02-28T11:24:30;4.05;;;3.20;;
28828;SDS011;15966;51.540;11.870;2023-02-28T11:27:01;6.03;;;4.75;;
28828;SDS011;15966;51.540;11.870;2023-02-28T11:29:32;8.95;;;5.07;;
28828;SDS011;15966;51.540;11.870;2023-02-28T11:34:46;8.77;;;4.40;;
28828;SDS011;15966;51.540;11.870;2023-02-28T11:37:29;6.22;;;4.75;;
28828;SDS011;15966;51.540;11.870;2023-02-28T11:39:56;5.03;;;4.45;;
28828;SDS011;15966;51.540;11.870;2023-02-28T11:48:01;6.93;;;4.30;;
28828;SDS011;15966;51.540;11.870;2023-02-28T11:53:39;4.85;;;4.35;;
28828;SDS011;15966;51.540;11.870;2023-02-28T11:56:18;5.60;;;4.28;;
28828;SDS011;15966;51.540;11.870;2023-02-28T12:15:37;6.85;;;5.28;;
28828;SDS011;15966;51.540;11.870;2023-02-28T12:18:30;7.28;;;4.72;;
28828;SDS011;15966;51.540;11.870;2023-02-28T12:24:14;6.05;;;5.25;;
28828;SDS011;15966;51.540;11.870;2023-02-28T12:26:49;6.30;;;5.28;;
28828;SDS011;15966;51.540;11.870;2023-02-28T12:29:21;5.45;;;4.95;;
28828;SDS011;15966;51.540;11.870;2023-02-28T12:37:41;6.22;;;4.85;;
28828;SDS011;15966;51.540;11.870;2023-02-28T12:40:21;6.00;;;4.80;;
28828;SDS011;15966;51.540;11.870;2023-02-28T12:42:52;7.28;;;5.22;;
28828;SDS011;15966;51.540;11.870;2023-02-28T12:48:17;9.13;;;5.60;;
28828;SDS011;15966;51.540;11.870;2023-02-28T12:51:00;7.95;;;5.03;;
28828;SDS011;15966;51.540;11.870;2023-02-28T12:59:32;6.65;;;5.25;;
28828;SDS011;15966;51.540;11.870;2023-02-28T13:02:18;8.57;;;5.28;;
28828;SDS011;15966;51.540;11.870;2023-02-28T13:04:55;6.57;;;5.38;;
28828;SDS011;15966;51.540;11.870;2023-02-28T13:07:31;10.25;;;4.78;;
28828;SDS011;15966;51.540;11.870;2023-02-28T13:10:17;7.45;;;5.28;;
28828;SDS011;15966;51.540;11.870;2023-02-28T13:12:51;6.82;;;4.90;;
28828;SDS011;15966;51.540;11.870;2023-02-28T13:15:25;7.85;;;5.75;;
28828;SDS011;15966;51.540;11.870;2023-02-28T13:17:55;5.18;;;4.70;;
28828;SDS011;15966;51.540;11.870;2023-02-28T13:20:33;5.93;;;4.50;;
28828;SDS011;15966;51.540;11.870;2023-02-28T13:23:00;5.67;;;4.23;;
28828;SDS011;15966;51.540;11.870;2023-02-28T13:27:59;6.28;;;5.20;;
28828;SDS011;15966;51.540;11.870;2023-02-28T13:33:20;5.45;;;4.93;;
28828;SDS011;15966;51.540;11.870;2023-02-28T13:41:36;6.35;;;4.65;;
28828;SDS011;15966;51.540;11.870;2023-02-28T13:44:18;7.72;;;5.57;;
28828;SDS011;15966;51.540;11.870;2023-02-28T14:02:36;9.45;;;5.80;;
28828;SDS011;15966;51.540;11.870;2023-02-28T14:05:17;5.97;;;4.50;;
28828;SDS011;15966;51.540;11.870;2023-02-28T14:07:50;6.70;;;5.63;;
28828;SDS011;15966;51.540;11.870;2023-02-28T14:10:26;6.20;;;5.57;;
28828;SDS011;15966;51.540;11.870;2023-02-28T14:13:02;5.50;;;4.70;;
28828;SDS011;15966;51.540;11.870;2023-02-28T14:18:35;5.82;;;5.22;;
28828;SDS011;15966;51.540;11.870;2023-02-28T14:21:09;7.82;;;6.20;;
28828;SDS011;15966;51.540;11.870;2023-02-28T14:29:52;10.93;;;5.32;;
28828;SDS011;15966;51.540;11.870;2023-02-28T14:37:45;9.07;;;6.55;;
28828;SDS011;15966;51.540;11.870;2023-02-28T14:40:17;7.05;;;5.63;;
28828;SDS011;15966;51.540;11.870;2023-02-28T14:43:00;7.70;;;6.25;;
28828;SDS011;15966;51.540;11.870;2023-02-28T14:45:31;5.82;;;5.22;;
28828;SDS011;15966;51.540;11.870;2023-02-28T14:47:58;6.43;;;5.32;;
28828;SDS011;15966;51.540;11.870;2023-02-28T14:50:32;6.45;;;4.70;;
28828;SDS011;15966;51.540;11.870;2023-02-28T14:53:00;5.80;;;5.10;;
28828;SDS011;15966;51.540;11.870;2023-02-28T14:55:31;7.80;;;6.13;;
28828;SDS011;15966;51.540;11.870;2023-02-28T14:58:00;5.55;;;4.55;;
28828;SDS011;15966;51.540;11.870;2023-02-28T15:00:32;7.90;;;5.65;;
28828;SDS011;15966;51.540;11.870;2023-02-28T15:03:00;6.00;;;4.93;;
28828;SDS011;15966;51.540;11.870;2023-02-28T15:05:38;5.68;;;4.90;;
28828;SDS011;15966;51.540;11.870;2023-02-28T15:10:39;6.97;;;4.93;;
28828;SDS011;15966;51.540;11.870;2023-02-28T15:13:13;7.22;;;4.13;;
28828;SDS011;15966;51.540;11.870;2023-02-28T15:15:59;7.15;;;4.82;;
28828;SDS011;15966;51.540;11.870;2023-02-28T15:18:36;7.97;;;4.93;;
28828;SDS011;15966;51.540;11.870;2023-02-28T15:21:08;7.07;;;4.75;;
28828;SDS011;15966;51.540;11.870;2023-02-28T15:23:38;5.80;;;4.82;;
28828;SDS011;15966;51.540;11.870;2023-02-28T15:26:07;7.18;;;4.57;;
28828;SDS011;15966;51.540;11.870;2023-02-28T15:31:20;7.30;;;4.60;;
28828;SDS011;15966;51.540;11.870;2023-02-28T15:33:52;5.75;;;4.22;;
28828;SDS011;15966;51.540;11.870;2023-02-28T15:36:19;7.40;;;4.30;;
28828;SDS011;15966;51.540;11.870;2023-02-28T15:38:50;5.53;;;4.90;;
28828;SDS011;15966;51.540;11.870;2023-02-28T15:41:24;6.82;;;5.13;;
28828;SDS011;15966;51.540;11.870;2023-02-28T15:46:42;9.05;;;4.47;;
28828;SDS011;15966;51.540;11.870;2023-02-28T15:51:46;6.30;;;4.85;;
28828;SDS011;15966;51.540;11.870;2023-02-28T15:54:18;6.53;;;4.60;;
28828;SDS011;15966;51.540;11.870;2023-02-28T15:56:51;7.05;;;4.97;;
28828;SDS011;15966;51.540;11.870;2023-02-28T15:59:26;7.10;;;5.55;;
28828;SDS011;15966;51.540;11.870;2023-02-28T16:04:54;7.93;;;5.97;;
28828;SDS011;15966;51.540;11.870;2023-02-28T16:07:40;6.78;;;5.43;;
28828;SDS011;15966;51.540;11.870;2023-02-28T16:10:08;9.27;;;5.90;;
28828;SDS011;15966;51.540;11.870;2023-02-28T16:12:37;6.68;;;4.63;;
28828;SDS011;15966;51.540;11.870;2023-02-28T16:15:08;5.38;;;4.13;;
28828;SDS011;15966;51.540;11.870;2023-02-28T16:17:46;5.38;;;4.72;;
28828;SDS011;15966;51.540;11.870;2023-02-28T16:20:14;8.77;;;4.97;;
28828;SDS011;15966;51.540;11.870;2023-02-28T16:22:47;7.25;;;4.70;;
28828;SDS011;15966;51.540;11.870;2023-02-28T16:25:14;5.72;;;4.70;;
28828;SDS011;15966;51.540;11.870;2023-02-28T16:27:42;6.57;;;5.13;;
28828;SDS011;15966;51.540;11.870;2023-02-28T16:30:16;7.55;;;5.15;;
28828;SDS011;15966;51.540;11.870;2023-02-28T16:32:44;6.03;;;4.55;;
28828;SDS011;15966;51.540;11.870;2023-02-28T16:35:11;6.13;;;5.13;;
28828;SDS011;15966;51.540;11.870;2023-02-28T16:40:05;5.18;;;4.38;;
28828;SDS011;15966;51.540;11.870;2023-02-28T16:42:33;7.18;;;5.78;;
28828;SDS011;15966;51.540;11.870;2023-02-28T16:44:59;6.43;;;5.63;;
28828;SDS011;15966;51.540;11.870;2023-02-28T16:47:25;7.18;;;5.55;;
28828;SDS011;15966;51.540;11.870;2023-02-28T16:49:51;6.30;;;5.25;;
28828;SDS011;15966;51.540;11.870;2023-02-28T16:52:18;6.30;;;5.03;;
28828;SDS011;15966;51.540;11.870;2023-02-28T16:54:44;7.28;;;5.97;;
28828;SDS011;15966;51.540;11.870;2023-02-28T16:57:28;11.75;;;5.90;;
28828;SDS011;15966;51.540;11.870;2023-02-28T16:59:54;7.82;;;6.10;;
28828;SDS011;15966;51.540;11.870;2023-02-28T17:02:20;5.75;;;5.18;;
28828;SDS011;15966;51.540;11.870;2023-02-28T17:04:46;15.05;;;7.15;;
28828;SDS011;15966;51.540;11.870;2023-02-28T17:07:13;6.72;;;5.65;;
28828;SDS011;15966;51.540;11.870;2023-02-28T17:09:41;7.40;;;6.22;;
28828;SDS011;15966;51.540;11.870;2023-02-28T17:12:08;10.55;;;7.32;;
28828;SDS011;15966;51.540;11.870;2023-02-28T17:14:35;7.30;;;6.15;;
28828;SDS011;15966;51.540;11.870;2023-02-28T17:17:02;12.00;;;6.50;;
28828;SDS011;15966;51.540;11.870;2023-02-28T17:21:56;8.07;;;6.68;;
28828;SDS011;15966;51.540;11.870;2023-02-28T17:24:22;8.98;;;6.95;;
28828;SDS011;15966;51.540;11.870;2023-02-28T17:26:48;9.27;;;6.72;;
28828;SDS011;15966;51.540;11.870;2023-02-28T17:29:18;12.02;;;8.32;;
28828;SDS011;15966;51.540;11.870;2023-02-28T17:31:45;10.48;;;6.93;;